»·PEaware :: N982CA KSNA-KBUR

N982CA :: KSNA-KBUR

FLIGHT INFORMATION

Flight Status: Arrived
Operator: Privately registered:
United States
More flights under this callsign
Pilot: David C. (25479)
Aircraft: Diamond DA-40
(DA40)
More flights by this aircraft type
Origin: KSNA John Wayne-Orange Co
United States
Destination: KBUR Bob Hope-Burbank
United States
More flights between these airports :: More routes between these airports
Route: +SLI V23 POPPR SMO125 SMO SMO311 SILEX
File this flight plan on PilotEdge
Remarks:
Altitude:
(Current/Filed)
4,000ft
Speed:
(Current/Filed)
120kts
Departed: 17-Nov-20 07:56 PM
Arrived: 17-Nov-20 08:27 PM
Distance/Time
Traveled:
40nm/0:31
Distance/Time
To Go:
Arrived

Flight Plot

Page will automatically refresh every two minutes.


Map Options




Map Legend


Flown Route
Filed Route
Departure Airport
Arrival Airport
Navaid (VOR, NDB)
Fix

Horizontal Profiles

Position Reports

Time Latitude Longitude Heading Altitude Ground
Speed
17-Nov-20 19:39 33.672188 -117.867079 214 52ft 0kts
17-Nov-20 19:40 33.672188 -117.867079 214 52ft 0kts
17-Nov-20 19:41 33.672188 -117.867079 214 52ft 0kts
17-Nov-20 19:42 33.672188 -117.867079 214 52ft 0kts
17-Nov-20 19:43 33.672188 -117.867079 214 52ft 0kts
17-Nov-20 19:44 33.672188 -117.867079 214 52ft 0kts
17-Nov-20 19:45 33.672188 -117.867079 214 52ft 0kts
17-Nov-20 19:46 33.672188 -117.867079 214 52ft 0kts
17-Nov-20 19:47 33.672188 -117.867079 214 52ft 0kts
17-Nov-20 19:48 33.672188 -117.867079 214 52ft 0kts
17-Nov-20 19:49 33.672188 -117.867079 214 52ft 0kts
17-Nov-20 19:50 33.671674 -117.867772 282 52ft 7kts
17-Nov-20 19:51 33.673268 -117.867634 18 57ft 0kts
17-Nov-20 19:52 33.677401 -117.865021 27 50ft 31kts
17-Nov-20 19:53 33.679889 -117.863641 299 45ft 0kts
17-Nov-20 19:54 33.679952 -117.863968 269 45ft 14kts
17-Nov-20 19:55 33.666636 -117.876310 232 327ft 83kts
17-Nov-20 19:56 33.652373 -117.898817 232 921ft 84kts
17-Nov-20 19:57 33.638242 -117.921328 232 1533ft 85kts
17-Nov-20 19:58 33.622846 -117.946320 232 2155ft 99kts
17-Nov-20 19:59 33.611104 -117.975959 295 2756ft 111kts
17-Nov-20 20:00 33.631804 -118.004392 311 3352ft 115kts
17-Nov-20 20:01 33.653607 -118.031759 311 3896ft 121kts
17-Nov-20 20:02 33.679123 -118.063485 310 3993ft 138kts
17-Nov-20 20:03 33.706167 -118.097183 310 3994ft 140kts
17-Nov-20 20:04 33.733117 -118.131033 310 3997ft 140kts
17-Nov-20 20:05 33.756722 -118.160842 310 3998ft 140kts
17-Nov-20 20:06 33.785104 -118.191900 312 3998ft 140kts
17-Nov-20 20:08 33.811846 -118.225983 310 3998ft 140kts
17-Nov-20 20:09 33.834933 -118.263165 299 3999ft 139kts
17-Nov-20 20:10 33.858230 -118.298773 321 3999ft 141kts
17-Nov-20 20:11 33.888194 -118.326202 321 4001ft 141kts
17-Nov-20 20:12 33.919399 -118.354909 320 4001ft 141kts
17-Nov-20 20:13 33.950587 -118.383795 320 4002ft 141kts
17-Nov-20 20:14 33.981704 -118.412824 320 4000ft 141kts
17-Nov-20 20:15 34.012529 -118.441784 320 4002ft 141kts
17-Nov-20 20:16 34.043051 -118.471396 313 4000ft 140kts
17-Nov-20 20:17 34.070326 -118.504905 312 4000ft 140kts
17-Nov-20 20:18 34.097559 -118.538662 312 3999ft 140kts
17-Nov-20 20:19 34.124452 -118.572492 312 3992ft 138kts
17-Nov-20 20:20 34.154549 -118.598160 7 3996ft 136kts
17-Nov-20 20:21 34.180313 -118.571413 56 3675ft 114kts
17-Nov-20 20:22 34.195915 -118.538918 71 2811ft 109kts
17-Nov-20 20:23 34.200401 -118.497077 89 2694ft 125kts
17-Nov-20 20:24 34.200433 -118.452821 93 2372ft 140kts
17-Nov-20 20:25 34.198983 -118.408087 93 1438ft 106kts
17-Nov-20 20:26 34.198047 -118.373925 93 894ft 106kts
17-Nov-20 20:27 34.196986 -118.357949 173 714ft 0kts
17-Nov-20 20:27 34.196986 -118.357949 173 714ft 0kts
17-Nov-20 20:29 34.196886 -118.357996 210 714ft 10kts
17-Nov-20 20:29 34.195934 -118.361208 113 715ft 14kts
17-Nov-20 20:31 34.195979 -118.360869 44 715ft 0kts
17-Nov-20 20:31 34.195979 -118.360869 44 715ft 0kts
17-Nov-20 20:32 34.195979 -118.360869 44 715ft 0kts
17-Nov-20 20:33 34.195979 -118.360869 44 715ft 0kts
17-Nov-20 20:35 34.195979 -118.360869 44 715ft 0kts
17-Nov-20 20:35 34.195979 -118.360869 44 715ft 0kts

Navigation Log

Ident Type
Flight plan parsing failed, navigation log unavailable